createdAt,value
2019-05-26T00:01:32.883Z,26.47
2019-05-26T00:04:01.066Z,28.87
2019-05-26T00:06:29.279Z,19.00
2019-05-26T00:08:57.495Z,23.50
2019-05-26T00:11:25.698Z,25.67
2019-05-26T00:13:53.883Z,20.43
2019-05-26T00:16:22.095Z,20.73
2019-05-26T00:18:50.515Z,21.47
2019-05-26T00:21:18.718Z,24.17
2019-05-26T00:23:46.898Z,21.87
2019-05-26T00:26:15.086Z,22.47
2019-05-26T00:28:43.289Z,26.73
2019-05-26T00:31:11.475Z,26.33
2019-05-26T00:33:39.689Z,26.50
2019-05-26T00:36:07.879Z,24.03
2019-05-26T00:38:36.082Z,24.17
2019-05-26T00:41:04.270Z,24.33
2019-05-26T00:43:32.546Z,25.67
2019-05-26T00:46:00.737Z,29.07
2019-05-26T00:48:28.996Z,25.77
2019-05-26T00:50:57.194Z,27.53
2019-05-26T00:53:25.446Z,27.57
2019-05-26T00:55:53.658Z,28.97
2019-05-26T00:58:21.863Z,25.90
2019-05-26T01:00:50.069Z,34.53
2019-05-26T01:03:18.278Z,30.67
2019-05-26T01:05:46.475Z,48.40
2019-05-26T01:08:14.755Z,34.07
2019-05-26T01:10:42.950Z,35.60
2019-05-26T01:13:11.145Z,30.90
2019-05-26T01:15:40.015Z,35.20
2019-05-26T01:18:08.201Z,38.70
2019-05-26T01:20:36.424Z,34.70
2019-05-26T01:23:04.670Z,39.53
2019-05-26T01:25:32.910Z,43.83
2019-05-26T01:28:01.101Z,46.77
2019-05-26T01:30:30.831Z,48.87
2019-05-26T01:32:59.059Z,44.30
2019-05-26T01:35:27.434Z,46.17
2019-05-26T01:37:55.634Z,54.43
2019-05-26T01:40:25.416Z,54.67
2019-05-26T01:42:53.657Z,56.93
2019-05-26T01:45:21.857Z,55.27
2019-05-26T01:47:50.171Z,61.33
2019-05-26T01:50:18.718Z,63.10
2019-05-26T01:52:46.949Z,54.43
2019-05-26T01:55:15.159Z,51.57
2019-05-26T01:57:43.367Z,51.97
2019-05-26T02:00:17.685Z,46.87
2019-05-26T02:02:45.938Z,40.67
2019-05-26T02:05:14.232Z,42.23
2019-05-26T02:07:42.409Z,50.30
2019-05-26T02:10:10.892Z,42.37
2019-05-26T02:12:39.077Z,39.53
2019-05-26T02:15:07.976Z,40.57
2019-05-26T02:17:36.324Z,42.70
2019-05-26T02:20:05.199Z,46.23
2019-05-26T02:22:33.407Z,45.43
2019-05-26T02:25:01.618Z,51.00
2019-05-26T02:27:29.897Z,51.30
2019-05-26T02:29:58.093Z,42.43
2019-05-26T02:32:26.294Z,39.87
2019-05-26T02:34:54.541Z,47.30
2019-05-26T02:37:22.760Z,47.17
2019-05-26T02:39:50.991Z,44.00
2019-05-26T02:42:19.184Z,45.63
2019-05-26T02:44:47.387Z,44.63
2019-05-26T02:47:15.579Z,45.60
2019-05-26T02:49:43.784Z,41.40
2019-05-26T02:52:11.983Z,50.80
2019-05-26T02:54:40.195Z,61.53
2019-05-26T02:57:08.404Z,47.97
2019-05-26T02:59:36.597Z,49.87
2019-05-26T03:02:05.153Z,49.87
2019-05-26T03:04:33.491Z,57.27
2019-05-26T03:07:02.075Z,51.93
2019-05-26T03:09:31.427Z,63.33
2019-05-26T03:11:59.641Z,55.87
2019-05-26T03:14:29.014Z,67.43
2019-05-26T03:16:58.752Z,74.33
2019-05-26T03:19:27.643Z,66.53
2019-05-26T03:21:56.221Z,56.00
2019-05-26T03:24:25.959Z,60.47
2019-05-26T03:26:54.146Z,57.33
2019-05-26T03:29:22.513Z,46.43
2019-05-26T03:31:50.761Z,50.33
2019-05-26T03:34:18.963Z,44.03
2019-05-26T03:36:47.172Z,55.60
2019-05-26T03:39:15.361Z,45.33
2019-05-26T03:41:43.566Z,45.63
2019-05-26T03:44:11.757Z,41.33
2019-05-26T03:46:39.952Z,49.63
2019-05-26T03:49:08.176Z,50.40
2019-05-26T03:51:36.358Z,43.07
2019-05-26T03:54:04.770Z,53.60
2019-05-26T03:56:32.970Z,51.57
2019-05-26T03:59:01.173Z,50.37
2019-05-26T04:01:29.386Z,55.10
2019-05-26T04:03:57.582Z,46.17
2019-05-26T04:06:25.805Z,45.80
2019-05-26T04:08:54.022Z,38.37
2019-05-26T04:11:22.194Z,30.23
2019-05-26T04:13:50.397Z,29.63
2019-05-26T04:16:18.603Z,24.97
2019-05-26T04:18:46.925Z,19.50
2019-05-26T04:21:15.121Z,18.83
2019-05-26T04:23:43.321Z,14.87
2019-05-26T04:26:11.519Z,15.90
2019-05-26T04:28:39.718Z,12.53
2019-05-26T04:31:07.931Z,11.33
2019-05-26T04:33:36.124Z,9.77
2019-05-26T04:36:04.381Z,10.80
2019-05-26T04:38:32.747Z,9.27
2019-05-26T04:41:00.934Z,8.63
2019-05-26T04:43:30.799Z,8.73
2019-05-26T04:45:59.000Z,10.03
2019-05-26T04:48:27.177Z,8.63
2019-05-26T04:50:55.370Z,7.87
2019-05-26T04:53:23.564Z,8.43
2019-05-26T04:55:51.785Z,7.00
2019-05-26T04:58:19.959Z,7.20
2019-05-26T05:00:48.147Z,7.53
2019-05-26T05:03:16.361Z,7.57
2019-05-26T05:05:44.587Z,7.57
2019-05-26T05:08:12.826Z,7.23
2019-05-26T05:10:42.746Z,7.07
2019-05-26T05:13:11.087Z,19.43
2019-05-26T05:15:39.366Z,7.40
2019-05-26T05:18:07.550Z,7.10
2019-05-26T05:20:35.758Z,5.97
2019-05-26T05:23:04.120Z,6.60
2019-05-26T05:25:32.312Z,6.53
2019-05-26T05:28:00.521Z,6.80
2019-05-26T05:30:28.714Z,6.67
2019-05-26T05:32:56.939Z,6.53
2019-05-26T05:35:25.118Z,6.23
2019-05-26T05:37:53.307Z,6.13
2019-05-26T05:40:21.498Z,6.27
2019-05-26T05:42:49.694Z,6.10
2019-05-26T05:45:18.045Z,6.10
2019-05-26T05:47:46.297Z,6.50
2019-05-26T05:50:14.761Z,6.70
2019-05-26T05:52:43.990Z,7.00
2019-05-26T05:55:12.348Z,6.30
2019-05-26T05:57:40.823Z,6.50
2019-05-26T06:00:09.960Z,6.80
2019-05-26T06:02:38.150Z,6.75
2019-05-26T06:05:06.360Z,5.83
2019-05-26T06:07:34.547Z,5.92
2019-05-26T06:10:07.167Z,5.78
2019-05-26T06:12:38.028Z,5.97
2019-05-26T06:15:07.806Z,5.62
2019-05-26T06:17:35.996Z,5.85
2019-05-26T06:20:05.480Z,7.10
2019-05-26T06:22:33.877Z,6.20
2019-05-26T06:25:02.202Z,7.45
2019-05-26T06:27:30.389Z,6.90
2019-05-26T06:29:59.365Z,7.65
2019-05-26T06:32:27.754Z,6.62
2019-05-26T06:34:55.942Z,6.42
2019-05-26T06:37:24.142Z,6.87
2019-05-26T06:39:52.327Z,6.55
2019-05-26T06:42:20.539Z,6.45
2019-05-26T06:44:53.421Z,7.25
2019-05-26T06:47:18.615Z,6.03
2019-05-26T06:49:46.807Z,7.47
2019-05-26T06:52:15.019Z,7.30
2019-05-26T06:54:43.213Z,6.22
2019-05-26T06:57:11.391Z,6.35
2019-05-26T06:59:39.592Z,6.53
2019-05-26T07:02:07.782Z,6.83
2019-05-26T07:04:35.994Z,6.00
2019-05-26T07:07:04.230Z,6.50
2019-05-26T07:09:32.423Z,5.87
2019-05-26T07:12:00.794Z,6.42
2019-05-26T07:14:29.101Z,6.35
2019-05-26T07:16:57.286Z,6.25
2019-05-26T07:19:25.484Z,6.97
2019-05-26T07:21:53.870Z,5.80
2019-05-26T07:24:22.063Z,6.03
2019-05-26T07:26:50.270Z,5.95
2019-05-26T07:29:18.458Z,6.35
2019-05-26T07:31:46.679Z,6.80
2019-05-26T07:34:14.906Z,5.97
2019-05-26T07:36:43.154Z,7.92
2019-05-26T07:39:11.344Z,6.35
2019-05-26T07:41:39.800Z,6.60
2019-05-26T07:44:07.993Z,6.03
2019-05-26T07:46:36.180Z,6.25
2019-05-26T07:49:04.467Z,6.33
2019-05-26T07:51:32.646Z,6.03
2019-05-26T07:54:00.919Z,6.42
2019-05-26T07:56:29.135Z,6.40
2019-05-26T07:58:57.527Z,6.08
2019-05-26T08:01:35.171Z,6.20
2019-05-26T08:03:55.591Z,7.65
2019-05-26T08:06:23.794Z,6.20
2019-05-26T08:08:51.978Z,6.33
2019-05-26T08:11:20.186Z,6.65
2019-05-26T08:13:48.438Z,6.90
2019-05-26T08:16:16.622Z,6.22
2019-05-26T08:18:44.822Z,6.25
2019-05-26T08:21:13.030Z,6.28
2019-05-26T08:23:41.231Z,6.83
2019-05-26T08:26:09.437Z,6.78
2019-05-26T08:28:37.631Z,9.03
2019-05-26T08:31:05.821Z,7.10
2019-05-26T08:33:34.431Z,6.72
2019-05-26T08:36:02.620Z,7.05
2019-05-26T08:38:30.808Z,6.90
2019-05-26T08:40:59.067Z,7.25
2019-05-26T08:43:27.278Z,6.95
2019-05-26T08:45:55.527Z,8.18
2019-05-26T08:48:23.701Z,7.53
2019-05-26T08:50:51.958Z,8.33
2019-05-26T08:53:20.138Z,7.30
2019-05-26T08:55:48.446Z,7.03
2019-05-26T08:58:16.638Z,6.70
2019-05-26T09:00:44.825Z,7.22
2019-05-26T09:03:13.029Z,6.75
2019-05-26T09:05:41.464Z,7.50
2019-05-26T09:08:09.661Z,6.62
2019-05-26T09:10:37.865Z,7.20
2019-05-26T09:13:06.093Z,8.20
2019-05-26T09:15:34.275Z,7.25
2019-05-26T09:18:02.462Z,6.58
2019-05-26T09:20:30.663Z,7.78
2019-05-26T09:22:58.842Z,8.75
2019-05-26T09:25:27.041Z,8.75
2019-05-26T09:27:55.234Z,7.58
2019-05-26T09:30:23.455Z,7.40
2019-05-26T09:32:51.642Z,7.40
2019-05-26T09:35:19.831Z,9.18
2019-05-26T09:37:48.029Z,8.90
2019-05-26T09:40:16.522Z,7.08
2019-05-26T09:42:44.719Z,7.08
2019-05-26T09:45:13.030Z,7.25
2019-05-26T09:47:41.235Z,6.90
2019-05-26T09:50:09.690Z,6.90
2019-05-26T09:52:37.909Z,6.92
2019-05-26T09:55:07.035Z,8.08
2019-05-26T09:57:35.303Z,7.45
2019-05-26T10:00:06.689Z,7.28
2019-05-26T10:02:35.047Z,6.53
2019-05-26T10:05:04.415Z,6.87
2019-05-26T10:07:32.636Z,5.72
2019-05-26T10:10:00.820Z,5.83
2019-05-26T10:12:29.282Z,6.30
2019-05-26T10:14:57.482Z,5.72
2019-05-26T10:17:25.663Z,7.03
2019-05-26T10:19:53.868Z,6.05
2019-05-26T10:22:22.059Z,5.95
2019-05-26T10:24:50.291Z,5.28
2019-05-26T10:27:18.470Z,6.10
2019-05-26T10:29:46.732Z,5.30
2019-05-26T10:32:15.010Z,6.08
2019-05-26T10:34:43.275Z,4.67
2019-05-26T10:37:11.476Z,4.70
2019-05-26T10:39:39.650Z,4.62
2019-05-26T10:42:07.850Z,4.75
2019-05-26T10:44:36.034Z,6.28
2019-05-26T10:47:04.242Z,6.67
2019-05-26T10:49:32.430Z,6.40
2019-05-26T10:52:00.638Z,4.75
2019-05-26T10:54:28.826Z,5.45
2019-05-26T10:56:57.121Z,4.45
2019-05-26T10:59:25.297Z,5.03
2019-05-26T11:01:53.524Z,4.53
2019-05-26T11:04:21.701Z,4.37
2019-05-26T11:06:50.018Z,4.40
2019-05-26T11:09:18.267Z,4.55
2019-05-26T11:11:46.750Z,4.35
2019-05-26T11:14:15.058Z,4.40
2019-05-26T11:16:43.280Z,4.53
2019-05-26T11:19:11.586Z,5.50
2019-05-26T11:21:39.992Z,4.72
2019-05-26T11:24:08.190Z,3.70
2019-05-26T11:26:36.410Z,5.50
2019-05-26T11:29:04.761Z,3.92
2019-05-26T11:31:41.299Z,6.70
2019-05-26T11:34:09.533Z,3.37
2019-05-26T11:36:37.934Z,3.77
2019-05-26T11:39:07.180Z,4.25
2019-05-26T11:41:35.361Z,4.45
2019-05-26T11:44:17.050Z,3.65
2019-05-26T11:46:33.460Z,3.27
2019-05-26T11:49:01.682Z,4.25
2019-05-26T11:51:29.859Z,3.22
2019-05-26T11:53:58.133Z,3.83
2019-05-26T11:56:26.482Z,3.90
2019-05-26T11:58:54.682Z,2.87
2019-05-26T12:01:23.318Z,3.58
2019-05-26T12:03:51.691Z,3.70
2019-05-26T12:06:20.014Z,2.98
2019-05-26T12:08:48.235Z,2.92
2019-05-26T12:11:16.443Z,2.37
2019-05-26T12:13:44.618Z,3.62
2019-05-26T12:16:12.814Z,2.20
2019-05-26T12:18:41.051Z,3.87
2019-05-26T12:21:09.226Z,2.70
2019-05-26T12:23:37.446Z,2.30
2019-05-26T12:26:05.655Z,3.45
2019-05-26T12:28:33.851Z,2.20
2019-05-26T12:31:02.355Z,2.60
2019-05-26T12:33:32.172Z,1.90
2019-05-26T12:36:00.775Z,1.90
2019-05-26T12:38:28.965Z,2.30
2019-05-26T12:40:57.342Z,2.30
2019-05-26T12:43:25.583Z,1.57
2019-05-26T12:45:53.790Z,1.72
2019-05-26T12:48:21.993Z,2.75
2019-05-26T12:50:50.165Z,1.72
2019-05-26T12:53:18.794Z,1.87
2019-05-26T12:55:46.986Z,1.85
2019-05-26T12:58:15.199Z,3.25
2019-05-26T13:01:02.910Z,2.30
2019-05-26T13:03:31.097Z,2.50
2019-05-26T13:05:59.317Z,1.65
2019-05-26T13:08:27.625Z,1.87
2019-05-26T13:10:55.828Z,2.47
2019-05-26T13:13:24.027Z,2.75
2019-05-26T13:15:52.214Z,3.25
2019-05-26T13:18:20.402Z,1.92
2019-05-26T13:20:48.600Z,2.02
2019-05-26T13:23:16.786Z,2.50
2019-05-26T13:25:45.265Z,3.00
2019-05-26T13:28:13.455Z,1.90
2019-05-26T13:30:41.706Z,2.72
2019-05-26T13:33:09.911Z,1.95
2019-05-26T13:35:38.103Z,1.95
2019-05-26T13:38:06.314Z,3.65
2019-05-26T13:40:34.490Z,2.42
2019-05-26T13:43:02.678Z,2.40
2019-05-26T13:45:33.771Z,2.27
2019-05-26T13:48:00.765Z,2.42
2019-05-26T13:50:28.966Z,1.87
2019-05-26T13:52:57.150Z,2.75
2019-05-26T13:55:25.401Z,3.10
2019-05-26T13:57:53.637Z,1.87
2019-05-26T14:00:22.077Z,3.47
2019-05-26T14:02:50.287Z,2.25
2019-05-26T14:05:18.642Z,2.15
2019-05-26T14:07:46.833Z,3.50
2019-05-26T14:10:16.611Z,2.47
2019-05-26T14:12:44.800Z,2.08
2019-05-26T14:15:13.010Z,2.33
2019-05-26T14:17:42.162Z,2.33
2019-05-26T14:20:11.121Z,2.40
2019-05-26T14:22:39.313Z,3.08
2019-05-26T14:25:08.403Z,4.15
2019-05-26T14:27:36.783Z,2.20
2019-05-26T14:30:05.638Z,3.83
2019-05-26T14:32:33.831Z,1.92
2019-05-26T14:35:02.037Z,2.52
2019-05-26T14:37:30.277Z,2.65
2019-05-26T14:39:58.572Z,2.60
2019-05-26T14:42:26.746Z,4.40
2019-05-26T14:44:54.943Z,2.37
2019-05-26T14:47:23.137Z,2.12
2019-05-26T14:49:51.335Z,3.37
2019-05-26T14:52:19.575Z,2.40
2019-05-26T14:54:47.806Z,3.10
2019-05-26T14:57:15.990Z,2.00
2019-05-26T14:59:44.263Z,2.35
2019-05-26T15:02:12.575Z,1.92
2019-05-26T15:04:40.769Z,3.42
2019-05-26T15:07:08.954Z,1.98
2019-05-26T15:09:37.142Z,2.62
2019-05-26T15:12:05.339Z,2.10
2019-05-26T15:14:33.608Z,2.58
2019-05-26T15:17:01.806Z,1.60
2019-05-26T15:19:30.137Z,2.00
2019-05-26T15:21:58.322Z,2.20
2019-05-26T15:24:26.519Z,2.58
2019-05-26T15:26:54.730Z,2.10
2019-05-26T15:29:23.382Z,2.08
2019-05-26T15:31:51.676Z,2.58
2019-05-26T15:34:19.926Z,2.00
2019-05-26T15:36:48.193Z,2.00
2019-05-26T15:39:16.413Z,3.27
2019-05-26T15:41:44.692Z,1.70
2019-05-26T15:44:12.911Z,2.10
2019-05-26T15:46:41.133Z,1.80
2019-05-26T15:49:09.362Z,2.50
2019-05-26T15:51:37.538Z,2.57
2019-05-26T15:54:05.742Z,2.10
2019-05-26T15:56:34.017Z,2.30
2019-05-26T15:59:02.203Z,2.58
2019-05-26T16:01:30.870Z,2.30
2019-05-26T16:03:59.055Z,2.50
2019-05-26T16:06:27.310Z,2.20
2019-05-26T16:08:55.492Z,2.00
2019-05-26T16:11:23.965Z,2.50
2019-05-26T16:13:52.175Z,3.07
2019-05-26T16:16:20.377Z,1.80
2019-05-26T16:18:48.590Z,1.93
2019-05-26T16:23:46.723Z,2.50
2019-05-26T16:26:14.919Z,2.27
2019-05-26T16:28:43.106Z,2.10
2019-05-26T16:31:12.338Z,2.50
2019-05-26T16:33:40.733Z,3.47
2019-05-26T16:36:08.964Z,2.73
2019-05-26T16:38:37.171Z,2.00
2019-05-26T16:41:06.822Z,2.00
2019-05-26T16:43:35.231Z,2.50
2019-05-26T16:46:03.722Z,2.30
2019-05-26T16:48:31.974Z,2.70
2019-05-26T16:51:00.366Z,2.60
2019-05-26T16:53:28.545Z,2.33
2019-05-26T16:55:56.767Z,2.20
2019-05-26T16:58:25.009Z,2.17
2019-05-26T17:00:53.238Z,2.10
2019-05-26T17:03:21.431Z,2.13
2019-05-26T17:05:49.696Z,1.90
2019-05-26T17:08:17.955Z,2.40
2019-05-26T17:10:46.452Z,1.70
2019-05-26T17:13:14.635Z,1.93
2019-05-26T17:15:42.950Z,4.10
2019-05-26T17:18:11.242Z,2.47
2019-05-26T17:20:39.460Z,2.10
2019-05-26T17:23:07.643Z,2.47
2019-05-26T17:25:35.831Z,2.60
2019-05-26T17:28:04.034Z,1.87
2019-05-26T17:30:32.214Z,2.50
2019-05-26T17:33:00.417Z,2.40
2019-05-26T17:35:28.608Z,2.53
2019-05-26T17:37:56.789Z,1.83
2019-05-26T17:40:24.994Z,2.03
2019-05-26T17:42:53.245Z,1.70
2019-05-26T17:45:21.667Z,2.10
2019-05-26T17:47:49.929Z,2.53
2019-05-26T17:50:18.374Z,2.60
2019-05-26T17:52:46.579Z,2.20
2019-05-26T17:55:14.941Z,1.77
2019-05-26T17:57:43.146Z,2.30
2019-05-26T18:00:11.910Z,4.23
2019-05-26T18:02:40.116Z,4.33
2019-05-26T18:05:08.485Z,2.77
2019-05-26T18:07:36.677Z,2.07
2019-05-26T18:10:05.546Z,4.53
2019-05-26T18:12:33.728Z,3.07
2019-05-26T18:15:01.938Z,3.93
2019-05-26T18:17:45.529Z,4.80
2019-05-26T18:20:00.458Z,2.17
2019-05-26T18:22:28.866Z,2.00
2019-05-26T18:24:58.650Z,4.10
2019-05-26T18:27:26.990Z,2.97
2019-05-26T18:29:55.210Z,4.90
2019-05-26T18:32:23.420Z,2.30
2019-05-26T18:34:51.767Z,2.50
2019-05-26T18:37:20.007Z,2.97
2019-05-26T18:39:48.188Z,2.50
2019-05-26T18:42:16.394Z,2.60
2019-05-26T18:44:44.591Z,3.00
2019-05-26T18:47:13.157Z,3.30
2019-05-26T18:49:41.399Z,4.00
2019-05-26T18:52:09.606Z,10.43
2019-05-26T18:54:37.814Z,4.90
2019-05-26T18:57:06.012Z,2.67
2019-05-26T18:59:34.215Z,3.63
2019-05-26T19:02:02.800Z,5.53
2019-05-26T19:04:31.030Z,8.97
2019-05-26T19:06:59.446Z,5.87
2019-05-26T19:09:28.582Z,9.70
2019-05-26T19:11:57.047Z,7.77
2019-05-26T19:14:25.313Z,6.70
2019-05-26T19:16:53.512Z,6.33
2019-05-26T19:19:21.883Z,6.43
2019-05-26T19:21:50.073Z,4.87
2019-05-26T19:24:18.421Z,5.47
2019-05-26T19:26:46.611Z,4.63
2019-05-26T19:29:14.797Z,5.57
2019-05-26T19:31:43.047Z,4.37
2019-05-26T19:34:11.235Z,7.20
2019-05-26T19:36:39.808Z,5.27
2019-05-26T19:39:08.778Z,7.70
2019-05-26T19:41:39.245Z,5.27
2019-05-26T19:44:06.883Z,8.50
2019-05-26T19:46:35.108Z,6.47
2019-05-26T19:49:03.549Z,4.53
2019-05-26T19:51:31.737Z,5.27
2019-05-26T19:53:59.957Z,5.17
2019-05-26T19:56:28.155Z,7.30
2019-05-26T19:58:56.355Z,5.70
2019-05-26T20:01:24.605Z,7.03
2019-05-26T20:03:52.794Z,6.67
2019-05-26T20:06:21.062Z,8.27
2019-05-26T20:08:49.262Z,7.00
2019-05-26T20:11:17.440Z,6.43
2019-05-26T20:13:46.021Z,5.50
2019-05-26T20:16:14.218Z,5.73
2019-05-26T20:18:42.401Z,4.97
2019-05-26T20:21:10.598Z,4.83
2019-05-26T20:23:38.777Z,4.93
2019-05-26T20:26:07.066Z,5.90
2019-05-26T20:28:35.251Z,6.70
2019-05-26T20:31:03.437Z,6.30
2019-05-26T20:33:31.646Z,8.80
2019-05-26T20:35:59.828Z,5.50
2019-05-26T20:38:28.175Z,5.70
2019-05-26T20:40:56.359Z,6.87
2019-05-26T20:43:25.184Z,7.90
2019-05-26T20:45:53.410Z,6.17
2019-05-26T20:48:22.586Z,9.37
2019-05-26T20:50:50.799Z,6.37
2019-05-26T20:53:18.983Z,7.43
2019-05-26T20:55:47.158Z,7.33
2019-05-26T20:58:15.341Z,7.33
2019-05-26T21:00:43.555Z,7.03
2019-05-26T21:03:11.761Z,7.43
2019-05-26T21:05:39.947Z,6.87
2019-05-26T21:08:08.125Z,7.20
2019-05-26T21:10:36.337Z,6.20
2019-05-26T21:13:04.517Z,8.87
2019-05-26T21:15:32.731Z,7.63
2019-05-26T21:18:00.922Z,8.30
2019-05-26T21:20:29.114Z,6.93
2019-05-26T21:22:57.318Z,6.67
2019-05-26T21:25:25.506Z,7.57
2019-05-26T21:27:53.703Z,6.87
2019-05-26T21:30:21.891Z,6.87
2019-05-26T21:32:50.078Z,7.13
2019-05-26T21:35:18.286Z,5.87
2019-05-26T21:37:46.458Z,5.97
2019-05-26T21:40:14.654Z,7.57
2019-05-26T21:42:43.523Z,6.27
2019-05-26T21:45:11.974Z,6.50
2019-05-26T21:47:40.230Z,5.57
2019-05-26T21:50:08.976Z,6.00
2019-05-26T21:52:37.243Z,5.67
2019-05-26T21:55:05.711Z,6.47
2019-05-26T21:57:34.206Z,7.60
2019-05-26T22:00:02.394Z,5.70
2019-05-26T22:02:30.586Z,8.20
2019-05-26T22:04:58.793Z,6.97
2019-05-26T22:07:27.143Z,6.17
2019-05-26T22:09:55.333Z,6.10
2019-05-26T22:12:23.526Z,5.23
2019-05-26T22:14:51.719Z,6.30
2019-05-26T22:17:19.907Z,6.40
2019-05-26T22:19:48.115Z,6.73
2019-05-26T22:22:16.292Z,7.60
2019-05-26T22:24:44.562Z,6.33
2019-05-26T22:27:13.534Z,5.70
2019-05-26T22:29:41.756Z,4.93
2019-05-26T22:32:10.006Z,5.30
2019-05-26T22:34:38.192Z,4.80
2019-05-26T22:37:06.387Z,5.30
2019-05-26T22:39:34.574Z,6.10
2019-05-26T22:42:02.806Z,5.50
2019-05-26T22:44:30.989Z,5.13
2019-05-26T22:46:59.185Z,6.30
2019-05-26T22:49:27.423Z,5.90
2019-05-26T22:51:55.745Z,6.73
2019-05-26T22:54:24.945Z,8.37
2019-05-26T22:56:53.210Z,6.30
2019-05-26T22:59:21.418Z,6.53
2019-05-26T23:01:49.603Z,5.50
2019-05-26T23:04:17.786Z,5.40
2019-05-26T23:06:45.983Z,6.43
2019-05-26T23:09:14.247Z,6.10
2019-05-26T23:11:42.471Z,7.37
2019-05-26T23:14:10.654Z,5.20
2019-05-26T23:16:38.839Z,7.90
2019-05-26T23:19:18.916Z,6.20
2019-05-26T23:21:36.937Z,6.20
2019-05-26T23:24:05.128Z,7.67
2019-05-26T23:26:33.329Z,6.60
2019-05-26T23:29:01.510Z,6.03
2019-05-26T23:31:29.694Z,6.40
2019-05-26T23:33:57.893Z,6.70
2019-05-26T23:36:26.073Z,6.00
2019-05-26T23:38:54.261Z,22.67
2019-05-26T23:41:22.478Z,16.33
2019-05-26T23:43:50.650Z,7.77
2019-05-26T23:46:18.833Z,5.77
2019-05-26T23:48:47.030Z,4.77
2019-05-26T23:51:15.213Z,5.77
2019-05-26T23:53:43.393Z,5.77
2019-05-26T23:56:11.594Z,5.30
2019-05-26T23:58:39.789Z,5.30
